Time;durP1;ratioP1;P1;durP2;ratioP2;P2;SDS_P1;SDS_P2;PMS_P1;PMS_P2;Temp;Humidity;BMP_temperature;BMP_pressure;BME280_temperature;BME280_humidity;BME280_pressure;Samples;Min_cycle;Max_cycle;Signal;HPM_P1;HPM_P2
2021/08/21 00:02:01;;;;;;;11.38;10.27;;;;;;;;;;5112509;28;20570;-59
2021/08/21 00:04:27;;;;;;;10.88;9.63;;;;;;;;;;5097926;28;20359;-58
2021/08/21 00:06:52;;;;;;;11.25;9.55;;;;;;;;;;5109295;28;20026;-58
2021/08/21 00:09:17;;;;;;;11.40;9.77;;;;;;;;;;5111805;28;20023;-58
2021/08/21 00:11:42;;;;;;;10.60;9.40;;;;;;;;;;5093214;28;20416;-58
2021/08/21 00:14:08;;;;;;;11.45;10.30;;;;;;;;;;5103785;28;20023;-59
2021/08/21 00:16:33;;;;;;;11.32;9.50;;;;;;;;;;5094977;28;20433;-59
2021/08/21 00:18:59;;;;;;;12.95;10.43;;;;;;;;;;5094981;28;20486;-58
2021/08/21 00:21:24;;;;;;;12.60;10.32;;;;;;;;;;5094763;28;20020;-58
2021/08/21 00:23:49;;;;;;;12.13;10.93;;;;;;;;;;5100486;28;20140;-59
2021/08/21 00:26:14;;;;;;;11.82;9.85;;;;;;;;;;5115149;28;20031;-58
2021/08/21 00:28:40;;;;;;;11.70;10.45;;;;;;;;;;5115070;28;20044;-59
2021/08/21 00:31:05;;;;;;;13.90;10.27;;;;;;;;;;5115221;28;20098;-59
2021/08/21 00:33:30;;;;;;;11.88;10.40;;;;;;;;;;5111454;28;20012;-59
2021/08/21 00:35:55;;;;;;;12.52;10.48;;;;;;;;;;5094479;28;20458;-59
2021/08/21 00:38:21;;;;;;;10.90;9.88;;;;;;;;;;5094695;28;20055;-59
2021/08/21 00:40:49;;;;;;;10.70;9.68;;;;;;;;;;5094448;28;20020;-59
2021/08/21 00:43:14;;;;;;;10.55;9.45;;;;;;;;;;5094701;28;20528;-60
2021/08/21 00:45:40;;;;;;;10.27;9.23;;;;;;;;;;5098169;28;20019;-59
2021/08/21 00:48:05;;;;;;;10.57;9.07;;;;;;;;;;5095465;28;20023;-59
2021/08/21 00:50:30;;;;;;;10.35;9.30;;;;;;;;;;5094052;28;20020;-59
2021/08/21 00:52:55;;;;;;;11.85;9.35;;;;;;;;;;5094329;28;20024;-59
2021/08/21 00:55:21;;;;;;;11.02;9.93;;;;;;;;;;5093868;28;20370;-59
2021/08/21 00:57:46;;;;;;;11.20;10.10;;;;;;;;;;5094389;28;20755;-59
2021/08/21 01:00:11;;;;;;;11.55;10.02;;;;;;;;;;5094057;28;20366;-59
2021/08/21 01:02:38;;;;;;;10.35;9.35;;;;;;;;;;5094200;28;20202;-59
2021/08/21 01:05:04;;;;;;;11.85;10.27;;;;;;;;;;5094047;28;20028;-59
2021/08/21 01:07:34;;;;;;;11.45;10.30;;;;;;;;;;5093943;28;20068;-60
2021/08/21 01:10:07;;;;;;;10.52;9.02;;;;;;;;;;5094067;28;20027;-60
2021/08/21 01:12:32;;;;;;;10.10;8.95;;;;;;;;;;5094203;28;20462;-60
2021/08/21 01:14:58;;;;;;;9.98;8.73;;;;;;;;;;5093648;28;20158;-58
2021/08/21 01:17:24;;;;;;;10.55;9.45;;;;;;;;;;5093708;28;20031;-59
2021/08/21 01:19:50;;;;;;;11.63;10.00;;;;;;;;;;5093928;28;20031;-59
2021/08/21 01:22:17;;;;;;;11.35;10.23;;;;;;;;;;5093645;28;20020;-59
2021/08/21 01:24:42;;;;;;;12.38;10.20;;;;;;;;;;5092521;28;20066;-59
2021/08/21 01:27:18;;;;;;;11.02;9.82;;;;;;;;;;5093374;28;20072;-59
2021/08/21 01:29:43;;;;;;;14.23;9.75;;;;;;;;;;5093533;28;20108;-60
2021/08/21 01:32:09;;;;;;;10.55;9.45;;;;;;;;;;5093797;28;20462;-59
2021/08/21 01:34:34;;;;;;;9.85;8.85;;;;;;;;;;5093184;28;20095;-59
2021/08/21 01:36:59;;;;;;;11.23;9.05;;;;;;;;;;5093173;28;20026;-58
2021/08/21 01:39:24;;;;;;;10.52;9.38;;;;;;;;;;5093315;28;20012;-60
2021/08/21 01:41:49;;;;;;;13.02;10.48;;;;;;;;;;5092775;28;20028;-58
2021/08/21 01:44:15;;;;;;;11.50;10.30;;;;;;;;;;5107036;28;20027;-59
2021/08/21 01:46:41;;;;;;;11.10;9.82;;;;;;;;;;5105160;28;20028;-59
2021/08/21 01:49:09;;;;;;;11.23;9.98;;;;;;;;;;5093333;28;20475;-60
2021/08/21 01:51:35;;;;;;;11.93;10.32;;;;;;;;;;5092958;28;20016;-59
2021/08/21 01:54:00;;;;;;;11.25;10.15;;;;;;;;;;5093168;28;20371;-59
2021/08/21 01:56:26;;;;;;;11.65;9.68;;;;;;;;;;5093295;28;20204;-59
2021/08/21 01:58:51;;;;;;;11.38;9.73;;;;;;;;;;5092999;28;20478;-59
2021/08/21 02:01:16;;;;;;;10.20;8.77;;;;;;;;;;5092888;28;20031;-59
2021/08/21 02:03:45;;;;;;;11.02;9.95;;;;;;;;;;5092929;28;20218;-59
2021/08/21 02:06:11;;;;;;;12.15;9.55;;;;;;;;;;5092504;28;20474;-59
2021/08/21 02:08:36;;;;;;;11.25;9.88;;;;;;;;;;5092973;28;20101;-59
2021/08/21 02:11:01;;;;;;;11.15;9.98;;;;;;;;;;5092595;28;20459;-59
2021/08/21 02:13:26;;;;;;;11.13;9.30;;;;;;;;;;5092857;28;20024;-59
2021/08/21 02:15:51;;;;;;;11.32;9.75;;;;;;;;;;5093057;28;20054;-59
2021/08/21 02:18:17;;;;;;;11.95;9.52;;;;;;;;;;5092770;28;20055;-59
2021/08/21 02:20:42;;;;;;;12.77;10.43;;;;;;;;;;5100153;28;20031;-59
2021/08/21 02:23:07;;;;;;;11.63;10.48;;;;;;;;;;5112967;28;20068;-59
2021/08/21 02:25:33;;;;;;;10.65;9.55;;;;;;;;;;5112847;28;20023;-59
2021/08/21 02:28:06;;;;;;;10.65;8.88;;;;;;;;;;5112767;28;20048;-58
2021/08/21 02:30:32;;;;;;;10.77;9.48;;;;;;;;;;5112754;28;20026;-58
2021/08/21 02:32:57;;;;;;;9.43;8.52;;;;;;;;;;5112848;28;20032;-59
2021/08/21 02:35:22;;;;;;;11.15;9.50;;;;;;;;;;5089410;28;20027;-59
2021/08/21 02:37:47;;;;;;;13.57;9.65;;;;;;;;;;5072145;28;20023;-57
2021/08/21 02:40:13;;;;;;;10.80;9.27;;;;;;;;;;5071988;28;20060;-59
2021/08/21 02:42:38;;;;;;;10.82;9.48;;;;;;;;;;5091396;28;20092;-59
2021/08/21 02:45:03;;;;;;;10.48;9.07;;;;;;;;;;5092168;28;20027;-59
2021/08/21 02:47:28;;;;;;;10.00;9.00;;;;;;;;;;5092052;28;20051;-58
2021/08/21 02:49:54;;;;;;;11.73;8.40;;;;;;;;;;5092269;28;20055;-59
2021/08/21 02:52:19;;;;;;;9.05;8.00;;;;;;;;;;5091661;28;20081;-59
2021/08/21 02:54:44;;;;;;;9.55;8.25;;;;;;;;;;5092089;28;20028;-59
2021/08/21 02:57:09;;;;;;;11.27;9.48;;;;;;;;;;5074055;28;20016;-59
2021/08/21 02:59:34;;;;;;;10.60;9.57;;;;;;;;;;5092193;28;20019;-59
2021/08/21 03:02:00;;;;;;;10.88;9.73;;;;;;;;;;5092087;28;20099;-59
2021/08/21 03:04:25;;;;;;;11.52;9.43;;;;;;;;;;5092016;28;20019;-59
2021/08/21 03:06:50;;;;;;;9.70;8.70;;;;;;;;;;5107325;28;20019;-59
2021/08/21 03:09:15;;;;;;;10.02;9.00;;;;;;;;;;5111900;28;20474;-59
2021/08/21 03:11:41;;;;;;;10.15;9.05;;;;;;;;;;5096315;28;20050;-59
2021/08/21 03:14:06;;;;;;;10.00;9.07;;;;;;;;;;5091950;28;20194;-59
2021/08/21 03:16:31;;;;;;;10.70;9.18;;;;;;;;;;5091967;28;20094;-59
2021/08/21 03:18:56;;;;;;;9.32;8.32;;;;;;;;;;5091628;28;20032;-59
2021/08/21 03:21:22;;;;;;;11.02;9.15;;;;;;;;;;5091675;28;20020;-59
2021/08/21 03:23:47;;;;;;;11.40;9.43;;;;;;;;;;5091842;28;20020;-59
2021/08/21 03:26:12;;;;;;;9.57;8.40;;;;;;;;;;5091873;28;20035;-59
2021/08/21 03:28:38;;;;;;;10.23;9.05;;;;;;;;;;5091636;28;20044;-58
2021/08/21 03:31:03;;;;;;;9.57;7.65;;;;;;;;;;5096988;28;20377;-59
2021/08/21 03:33:28;;;;;;;9.68;8.52;;;;;;;;;;5093739;28;20044;-59
2021/08/21 03:35:53;;;;;;;12.10;8.65;;;;;;;;;;5088847;28;20019;-59
2021/08/21 03:38:19;;;;;;;9.05;8.10;;;;;;;;;;5112054;28;20020;-59
2021/08/21 03:40:44;;;;;;;10.15;8.35;;;;;;;;;;5111783;28;20100;-58
2021/08/21 03:43:09;;;;;;;9.30;8.30;;;;;;;;;;5112312;28;20024;-58
2021/08/21 03:45:36;;;;;;;13.50;9.23;;;;;;;;;;5111906;28;20020;-58
2021/08/21 03:48:01;;;;;;;9.55;8.55;;;;;;;;;;5094558;28;20021;-59
2021/08/21 03:50:26;;;;;;;10.95;8.85;;;;;;;;;;5095489;28;20016;-59
2021/08/21 03:52:52;;;;;;;10.15;9.15;;;;;;;;;;5095398;28;20095;-59
2021/08/21 03:55:17;;;;;;;9.25;8.32;;;;;;;;;;5095307;28;20020;-59
2021/08/21 03:57:42;;;;;;;9.95;8.40;;;;;;;;;;5095470;28;20508;-59
2021/08/21 04:00:08;;;;;;;9.25;8.35;;;;;;;;;;5095231;28;20030;-57
2021/08/21 04:02:33;;;;;;;9.43;8.48;;;;;;;;;;5095261;28;20028;-58
2021/08/21 04:04:58;;;;;;;9.88;8.88;;;;;;;;;;5095349;28;20039;-59
2021/08/21 04:07:23;;;;;;;9.57;7.90;;;;;;;;;;5094789;28;20505;-58
2021/08/21 04:09:49;;;;;;;9.75;8.63;;;;;;;;;;5094877;28;20012;-59
2021/08/21 04:12:16;;;;;;;9.40;8.25;;;;;;;;;;5094953;28;20024;-59
2021/08/21 04:14:41;;;;;;;9.60;8.30;;;;;;;;;;5094937;28;20023;-59
2021/08/21 04:17:06;;;;;;;9.38;8.48;;;;;;;;;;5094781;28;20020;-59
2021/08/21 04:19:31;;;;;;;8.80;7.90;;;;;;;;;;5094914;28;20059;-59
2021/08/21 04:21:57;;;;;;;10.35;8.55;;;;;;;;;;5094752;28;20497;-59
2021/08/21 04:24:22;;;;;;;7.93;6.97;;;;;;;;;;5095003;28;20095;-58
2021/08/21 04:26:47;;;;;;;9.00;7.25;;;;;;;;;;5095581;28;20048;-60
2021/08/21 04:29:13;;;;;;;10.07;7.97;;;;;;;;;;5094762;28;20028;-58
2021/08/21 04:31:38;;;;;;;8.38;7.57;;;;;;;;;;5094627;28;20370;-58
2021/08/21 04:34:03;;;;;;;8.07;7.28;;;;;;;;;;5094940;28;20026;-60
2021/08/21 04:36:29;;;;;;;9.32;7.82;;;;;;;;;;5094292;28;20439;-59
2021/08/21 04:38:54;;;;;;;9.32;8.10;;;;;;;;;;5094723;28;20549;-59
2021/08/21 04:41:19;;;;;;;8.93;8.02;;;;;;;;;;5094113;28;20031;-59
2021/08/21 04:43:44;;;;;;;9.07;7.65;;;;;;;;;;5094581;28;20016;-59
2021/08/21 04:46:10;;;;;;;10.27;7.68;;;;;;;;;;5094071;28;20130;-59
2021/08/21 04:48:35;;;;;;;9.18;6.80;;;;;;;;;;5094246;28;20367;-59
2021/08/21 04:51:00;;;;;;;8.88;7.40;;;;;;;;;;5094085;28;20436;-58
2021/08/21 04:53:26;;;;;;;8.32;7.32;;;;;;;;;;5113663;28;20104;-59
2021/08/21 04:55:51;;;;;;;7.90;7.10;;;;;;;;;;5105236;28;20532;-59
2021/08/21 04:58:16;;;;;;;8.13;7.07;;;;;;;;;;5094184;28;20905;-60
2021/08/21 05:00:41;;;;;;;7.95;7.15;;;;;;;;;;5106518;28;20038;-59
2021/08/21 05:03:06;;;;;;;8.55;7.75;;;;;;;;;;5114810;28;20015;-59
2021/08/21 05:05:32;;;;;;;8.30;7.43;;;;;;;;;;5114386;28;20016;-59
2021/08/21 05:07:57;;;;;;;7.63;6.82;;;;;;;;;;5114313;28;20020;-59
2021/08/21 05:10:22;;;;;;;10.75;7.30;;;;;;;;;;5114533;28;20378;-58
2021/08/21 05:12:47;;;;;;;8.80;6.97;;;;;;;;;;5114419;28;20351;-59
2021/08/21 05:15:13;;;;;;;8.55;7.20;;;;;;;;;;5094949;28;20020;-59
2021/08/21 05:17:38;;;;;;;7.63;6.57;;;;;;;;;;5093661;28;20028;-59
2021/08/21 05:20:08;;;;;;;8.57;7.15;;;;;;;;;;5099386;28;20012;-59
2021/08/21 05:25:13;;;;;;;12.55;7.50;;;;;;;;;;5114343;28;20450;-59
2021/08/21 05:27:38;;;;;;;6.90;6.20;;;;;;;;;;5113908;28;20054;-58
2021/08/21 05:30:04;;;;;;;7.05;6.38;;;;;;;;;;5114016;28;20012;-59
2021/08/21 05:32:30;;;;;;;7.38;6.68;;;;;;;;;;5113987;28;20106;-59
2021/08/21 05:34:55;;;;;;;7.03;6.32;;;;;;;;;;5113944;28;20099;-59
2021/08/21 05:37:20;;;;;;;6.55;5.82;;;;;;;;;;5093160;28;20479;-59
2021/08/21 05:39:45;;;;;;;7.63;6.18;;;;;;;;;;5093301;28;20137;-59
2021/08/21 05:42:10;;;;;;;6.85;6.25;;;;;;;;;;5093268;28;20070;-60
2021/08/21 05:44:36;;;;;;;7.30;5.85;;;;;;;;;;5092899;28;20163;-60
2021/08/21 05:47:01;;;;;;;6.97;6.28;;;;;;;;;;5092799;28;20016;-59
2021/08/21 05:49:26;;;;;;;8.45;6.88;;;;;;;;;;5093288;28;20413;-59
2021/08/21 05:51:51;;;;;;;6.57;5.95;;;;;;;;;;5092845;28;20166;-59
2021/08/21 05:54:17;;;;;;;6.07;5.47;;;;;;;;;;5093336;28;20458;-59
2021/08/21 05:56:42;;;;;;;6.43;5.75;;;;;;;;;;5093317;28;20069;-59
2021/08/21 05:59:07;;;;;;;6.75;6.03;;;;;;;;;;5093216;28;20099;-60
2021/08/21 06:01:32;;;;;;;6.40;5.90;;;;;;;;;;5093157;28;20099;-59
2021/08/21 06:03:57;;;;;;;7.32;5.68;;;;;;;;;;5092752;28;20409;-57
2021/08/21 06:06:25;;;;;;;6.32;5.72;;;;;;;;;;5092737;28;20036;-59
2021/08/21 06:08:51;;;;;;;5.93;5.35;;;;;;;;;;5092785;28;20024;-59
2021/08/21 06:11:16;;;;;;;6.13;5.38;;;;;;;;;;5091808;28;20402;-59
2021/08/21 06:13:41;;;;;;;5.88;5.38;;;;;;;;;;5092894;28;20016;-59
2021/08/21 06:16:06;;;;;;;5.53;5.03;;;;;;;;;;5074527;28;20028;-58
2021/08/21 06:18:31;;;;;;;6.10;5.50;;;;;;;;;;5093052;28;20020;-59
2021/08/21 06:20:57;;;;;;;6.45;5.05;;;;;;;;;;5092824;28;20031;-60
2021/08/21 06:23:22;;;;;;;4.95;4.55;;;;;;;;;;5092470;28;20027;-59
2021/08/21 06:25:48;;;;;;;5.25;4.85;;;;;;;;;;5092335;28;20382;-60
2021/08/21 06:28:13;;;;;;;5.68;4.70;;;;;;;;;;5092235;28;20044;-60
2021/08/21 06:30:38;;;;;;;5.35;4.85;;;;;;;;;;5074150;28;20099;-59
2021/08/21 06:33:04;;;;;;;5.80;4.63;;;;;;;;;;5099361;28;20015;-61
2021/08/21 06:35:29;;;;;;;6.05;4.57;;;;;;;;;;5101237;28;20035;-59
2021/08/21 06:37:54;;;;;;;5.05;4.63;;;;;;;;;;5092269;28;20016;-61
2021/08/21 06:40:19;;;;;;;5.13;4.53;;;;;;;;;;5073785;28;20489;-60
2021/08/21 06:42:44;;;;;;;5.57;4.82;;;;;;;;;;5092460;28;20464;-59
2021/08/21 06:45:10;;;;;;;4.78;4.35;;;;;;;;;;5092202;28;20024;-59
2021/08/21 06:47:35;;;;;;;5.90;4.10;;;;;;;;;;5092326;28;20483;-60
2021/08/21 06:50:01;;;;;;;5.05;4.53;;;;;;;;;;5092395;28;20023;-59
2021/08/21 06:52:26;;;;;;;4.78;4.07;;;;;;;;;;5091584;28;20035;-60
2021/08/21 06:54:52;;;;;;;6.18;4.55;;;;;;;;;;5092406;28;20031;-60
2021/08/21 06:57:17;;;;;;;5.10;4.63;;;;;;;;;;5092173;28;20016;-59
2021/08/21 06:59:42;;;;;;;4.65;4.10;;;;;;;;;;5095158;28;20023;-60
2021/08/21 07:02:07;;;;;;;4.75;4.28;;;;;;;;;;5098283;28;20108;-58
2021/08/21 07:04:32;;;;;;;4.07;3.70;;;;;;;;;;5092112;28;20055;-59
2021/08/21 07:06:58;;;;;;;4.80;3.80;;;;;;;;;;5091619;28;20050;-59
2021/08/21 07:09:23;;;;;;;4.40;4.00;;;;;;;;;;5091918;28;20024;-58
2021/08/21 07:11:48;;;;;;;5.05;3.83;;;;;;;;;;5091699;28;20020;-59
2021/08/21 07:14:15;;;;;;;4.05;3.65;;;;;;;;;;5109997;28;20046;-59
2021/08/21 07:16:40;;;;;;;4.68;3.70;;;;;;;;;;5102808;28;20115;-60
2021/08/21 07:19:06;;;;;;;3.85;3.30;;;;;;;;;;5092045;28;20095;-60
2021/08/21 07:21:31;;;;;;;3.35;3.05;;;;;;;;;;5093718;28;20035;-60
2021/08/21 07:23:57;;;;;;;5.03;4.53;;;;;;;;;;5109430;28;20039;-60
2021/08/21 07:26:22;;;;;;;3.60;3.30;;;;;;;;;;5077685;28;20028;-60
2021/08/21 07:28:47;;;;;;;3.47;3.17;;;;;;;;;;5096141;28;20016;-58
2021/08/21 07:31:12;;;;;;;4.80;3.63;;;;;;;;;;5095792;28;20258;-60
2021/08/21 07:33:37;;;;;;;5.77;3.50;;;;;;;;;;5095855;28;20020;-59
2021/08/21 07:36:03;;;;;;;3.77;3.47;;;;;;;;;;5095566;28;20262;-58
2021/08/21 07:38:28;;;;;;;4.07;3.67;;;;;;;;;;5095709;28;20269;-58
2021/08/21 07:40:53;;;;;;;3.22;2.67;;;;;;;;;;5095570;28;20378;-59
2021/08/21 07:43:19;;;;;;;3.22;3.03;;;;;;;;;;5095407;28;20375;-60
2021/08/21 07:45:46;;;;;;;3.20;3.00;;;;;;;;;;5095464;28;20103;-60
2021/08/21 07:48:11;;;;;;;2.83;2.63;;;;;;;;;;5102809;28;20045;-60
2021/08/21 07:50:37;;;;;;;3.38;2.80;;;;;;;;;;5115764;28;20012;-60
2021/08/21 07:53:02;;;;;;;3.17;2.80;;;;;;;;;;5115704;28;20378;-60
2021/08/21 07:55:27;;;;;;;3.42;3.13;;;;;;;;;;5115702;28;20281;-59
2021/08/21 07:57:52;;;;;;;3.15;2.45;;;;;;;;;;5115899;28;20367;-59
2021/08/21 08:00:17;;;;;;;3.20;2.67;;;;;;;;;;5115673;28;20207;-59
2021/08/21 08:02:44;;;;;;;2.97;2.73;;;;;;;;;;5103700;28;20454;-59
2021/08/21 08:05:09;;;;;;;3.58;3.28;;;;;;;;;;5094989;28;20289;-59
2021/08/21 08:07:34;;;;;;;2.53;2.33;;;;;;;;;;5094780;28;20020;-59
2021/08/21 08:09:59;;;;;;;3.00;2.70;;;;;;;;;;5094527;28;20017;-60
2021/08/21 08:12:24;;;;;;;2.50;2.30;;;;;;;;;;5095048;28;20616;-59
2021/08/21 08:14:50;;;;;;;3.40;3.20;;;;;;;;;;5094728;28;20254;-59
2021/08/21 08:17:15;;;;;;;3.72;2.90;;;;;;;;;;5095238;28;20254;-59
2021/08/21 08:19:40;;;;;;;2.38;2.20;;;;;;;;;;5094957;28;20020;-59
2021/08/21 08:22:05;;;;;;;2.70;2.50;;;;;;;;;;5094681;28;20462;-59
2021/08/21 08:24:31;;;;;;;2.25;2.10;;;;;;;;;;5094768;28;20253;-60
2021/08/21 08:26:56;;;;;;;2.58;2.33;;;;;;;;;;5094596;28;20048;-59
2021/08/21 08:29:21;;;;;;;1.60;1.50;;;;;;;;;;5094735;28;20065;-60
2021/08/21 08:31:46;;;;;;;2.13;1.40;;;;;;;;;;5094314;28;20335;-60
2021/08/21 08:34:11;;;;;;;1.50;1.40;;;;;;;;;;5094710;28;20012;-60
2021/08/21 08:36:37;;;;;;;1.53;1.40;;;;;;;;;;5094594;28;20258;-60
2021/08/21 08:39:02;;;;;;;1.85;1.75;;;;;;;;;;5095003;28;20643;-60
2021/08/21 08:41:28;;;;;;;1.95;1.80;;;;;;;;;;5094257;28;20082;-60
2021/08/21 08:43:53;;;;;;;2.60;2.40;;;;;;;;;;5094602;28;20059;-60
2021/08/21 08:46:19;;;;;;;1.97;1.87;;;;;;;;;;5094090;28;20051;-58
2021/08/21 08:48:45;;;;;;;2.70;2.47;;;;;;;;;;5094640;28;20249;-59
2021/08/21 08:51:10;;;;;;;2.28;2.17;;;;;;;;;;5094065;28;20016;-59
2021/08/21 08:53:36;;;;;;;2.55;2.35;;;;;;;;;;5075938;28;20072;-60
2021/08/21 08:56:02;;;;;;;2.30;2.10;;;;;;;;;;5093933;28;20028;-60
2021/08/21 08:58:27;;;;;;;2.38;2.25;;;;;;;;;;5094421;28;20067;-60
2021/08/21 09:00:55;;;;;;;3.00;1.97;;;;;;;;;;5094142;28;20386;-60
2021/08/21 09:03:22;;;;;;;3.30;2.40;;;;;;;;;;5094077;28;20281;-59
2021/08/21 09:05:47;;;;;;;2.20;2.10;;;;;;;;;;5093927;28;20127;-59
2021/08/21 09:08:20;;;;;;;3.00;2.20;;;;;;;;;;5093706;28;20169;-60
2021/08/21 09:10:46;;;;;;;2.35;1.90;;;;;;;;;;5093680;28;20454;-59
2021/08/21 09:13:13;;;;;;;2.90;1.83;;;;;;;;;;5093887;28;20028;-59
2021/08/21 09:15:39;;;;;;;2.03;1.83;;;;;;;;;;5093227;28;20071;-59
2021/08/21 09:18:07;;;;;;;2.55;2.08;;;;;;;;;;5103907;28;20454;-59
2021/08/21 09:20:50;;;;;;;1.95;1.77;;;;;;;;;;5093712;28;20056;-59
2021/08/21 09:23:19;;;;;;;2.75;2.55;;;;;;;;;;5093621;28;20385;-60
2021/08/21 09:25:45;;;;;;;2.55;2.35;;;;;;;;;;5093489;28;20462;-60
2021/08/21 09:28:18;;;;;;;3.78;2.10;;;;;;;;;;5093376;28;20051;-60
2021/08/21 09:30:43;;;;;;;3.08;1.85;;;;;;;;;;5093407;28;20039;-60
2021/08/21 09:33:08;;;;;;;2.13;1.67;;;;;;;;;;5093866;28;20470;-60
2021/08/21 09:35:34;;;;;;;1.70;1.60;;;;;;;;;;5095311;28;20056;-60
2021/08/21 09:37:59;;;;;;;1.70;1.50;;;;;;;;;;5113799;28;20344;-60
2021/08/21 09:40:30;;;;;;;1.80;1.70;;;;;;;;;;5101129;28;20139;-60
2021/08/21 09:42:56;;;;;;;1.27;1.17;;;;;;;;;;5093302;28;20099;-60
2021/08/21 09:45:22;;;;;;;2.42;1.25;;;;;;;;;;5092261;28;20115;-60
2021/08/21 09:47:47;;;;;;;2.08;1.75;;;;;;;;;;5093200;28;20020;-60
2021/08/21 09:50:14;;;;;;;3.97;2.15;;;;;;;;;;5093451;28;20098;-59
2021/08/21 09:52:40;;;;;;;2.15;1.90;;;;;;;;;;5092869;28;20012;-59
2021/08/21 09:55:06;;;;;;;2.20;1.92;;;;;;;;;;5099264;28;20015;-60
2021/08/21 09:57:32;;;;;;;1.98;1.88;;;;;;;;;;5112500;28;20110;-60
2021/08/21 10:00:00;;;;;;;2.38;2.17;;;;;;;;;;5113310;28;20122;-59
2021/08/21 10:02:28;;;;;;;2.13;1.92;;;;;;;;;;5113194;28;20020;-59
2021/08/21 10:04:54;;;;;;;1.58;1.48;;;;;;;;;;5113313;28;20100;-61
2021/08/21 10:07:22;;;;;;;2.17;1.52;;;;;;;;;;5112850;28;20469;-59
2021/08/21 10:09:48;;;;;;;1.90;1.63;;;;;;;;;;5112729;28;20026;-59
2021/08/21 10:12:15;;;;;;;1.83;1.35;;;;;;;;;;5113042;28;20028;-59
2021/08/21 10:14:43;;;;;;;1.38;1.27;;;;;;;;;;5112995;28;20049;-59
2021/08/21 10:17:09;;;;;;;2.75;1.35;;;;;;;;;;5111372;28;20023;-60
2021/08/21 10:19:36;;;;;;;1.45;1.10;;;;;;;;;;5092430;28;20538;-59
2021/08/21 10:22:01;;;;;;;1.25;1.15;;;;;;;;;;5107351;28;20477;-59
2021/08/21 10:24:37;;;;;;;3.00;1.13;;;;;;;;;;5112879;28;20026;-59
2021/08/21 10:27:05;;;;;;;1.58;1.10;;;;;;;;;;5112976;28;20031;-59
2021/08/21 10:29:31;;;;;;;1.10;0.95;;;;;;;;;;5112893;28;20022;-60
2021/08/21 10:31:57;;;;;;;0.80;0.80;;;;;;;;;;5104776;28;20024;-59
2021/08/21 10:34:22;;;;;;;1.58;0.90;;;;;;;;;;5092140;28;20378;-60
2021/08/21 10:36:49;;;;;;;1.50;0.80;;;;;;;;;;5091888;28;20053;-60
2021/08/21 10:39:17;;;;;;;0.95;0.80;;;;;;;;;;5092151;28;20274;-60
2021/08/21 10:41:42;;;;;;;1.58;1.00;;;;;;;;;;5092653;28;20069;-60
2021/08/21 10:44:07;;;;;;;1.87;1.10;;;;;;;;;;5092082;28;20024;-60
2021/08/21 10:46:32;;;;;;;0.98;0.75;;;;;;;;;;5091931;28;20303;-58
2021/08/21 10:48:58;;;;;;;2.80;1.13;;;;;;;;;;5092011;28;20132;-59
2021/08/21 10:51:37;;;;;;;0.80;0.55;;;;;;;;;;5091829;28;20028;-59
2021/08/21 10:54:21;;;;;;;0.90;0.80;;;;;;;;;;5092394;28;20019;-59
2021/08/21 10:56:46;;;;;;;0.40;0.40;;;;;;;;;;5091668;28;20429;-59
2021/08/21 10:59:12;;;;;;;0.90;0.90;;;;;;;;;;5097914;28;20027;-60
2021/08/21 11:01:37;;;;;;;1.30;0.73;;;;;;;;;;5112139;28;20072;-59
2021/08/21 11:04:02;;;;;;;1.40;0.93;;;;;;;;;;5113017;28;20038;-59
2021/08/21 11:06:29;;;;;;;2.60;0.73;;;;;;;;;;5111923;28;20364;-60
2021/08/21 11:08:55;;;;;;;0.70;0.70;;;;;;;;;;5112377;28;20378;-60
2021/08/21 11:11:30;;;;;;;3.03;0.82;;;;;;;;;;5112123;28;20016;-59
2021/08/21 11:14:05;;;;;;;0.80;0.68;;;;;;;;;;5112213;28;20018;-59
2021/08/21 11:16:30;;;;;;;;;;;;;;;;;;5112391;28;20039;-59
2021/08/21 11:18:55;;;;;;;1.55;0.70;;;;;;;;;;5093737;28;20436;-59
2021/08/21 11:21:29;;;;;;;0.40;0.40;;;;;;;;;;5091691;28;20028;-59
2021/08/21 11:23:54;;;;;;;0.68;0.68;;;;;;;;;;5091691;28;20501;-59
2021/08/21 11:26:24;;;;;;;1.83;0.70;;;;;;;;;;5073435;28;20028;-59
2021/08/21 11:29:06;;;;;;;1.50;0.65;;;;;;;;;;5091733;28;20035;-59
2021/08/21 11:31:50;;;;;;;2.92;0.75;;;;;;;;;;5091823;28;20024;-59
2021/08/21 11:34:16;;;;;;;0.50;0.50;;;;;;;;;;5091831;28;20020;-59
2021/08/21 11:36:42;;;;;;;1.05;0.50;;;;;;;;;;5091155;28;20012;-58
2021/08/21 11:39:08;;;;;;;1.15;0.50;;;;;;;;;;5091562;28;20394;-58
2021/08/21 11:41:33;;;;;;;1.15;0.40;;;;;;;;;;5091432;28;20024;-59
2021/08/21 11:44:04;;;;;;;0.43;0.43;;;;;;;;;;5091703;28;20516;-59
2021/08/21 11:46:29;;;;;;;0.80;0.50;;;;;;;;;;5091179;28;20020;-59
2021/08/21 11:49:04;;;;;;;0.60;0.40;;;;;;;;;;5091170;28;20020;-61
2021/08/21 11:51:29;;;;;;;0.60;0.40;;;;;;;;;;5091011;28;20267;-59
2021/08/21 11:53:55;;;;;;;0.52;0.50;;;;;;;;;;5091471;28;20020;-58
2021/08/21 11:56:20;;;;;;;0.30;0.30;;;;;;;;;;5090894;28;20020;-58
2021/08/21 11:58:48;;;;;;;0.50;0.40;;;;;;;;;;5091496;28;20032;-59
2021/08/21 12:01:16;;;;;;;0.55;0.40;;;;;;;;;;5091457;28;20020;-59
2021/08/21 12:06:26;;;;;;;0.60;0.30;;;;;;;;;;5091230;28;20032;-59
2021/08/21 12:09:05;;;;;;;0.75;0.40;;;;;;;;;;5092723;28;20024;-59
2021/08/21 12:11:30;;;;;;;1.05;0.40;;;;;;;;;;5094893;28;20016;-58
2021/08/21 12:13:55;;;;;;;1.57;0.50;;;;;;;;;;5080911;28;20417;-59
2021/08/21 12:16:20;;;;;;;0.83;0.40;;;;;;;;;;5074270;28;20036;-59
2021/08/21 12:18:48;;;;;;;0.50;0.50;;;;;;;;;;5073505;28;20077;-59
2021/08/21 12:21:17;;;;;;;0.50;0.50;;;;;;;;;;5094659;28;20095;-59
2021/08/21 12:23:43;;;;;;;1.85;0.45;;;;;;;;;;5094809;28;20115;-59
2021/08/21 12:26:08;;;;;;;1.40;0.30;;;;;;;;;;5094570;28;20508;-59
2021/08/21 12:28:39;;;;;;;1.33;0.50;;;;;;;;;;5094683;28;20135;-60
2021/08/21 12:31:05;;;;;;;0.40;0.40;;;;;;;;;;5094662;28;20258;-59
2021/08/21 12:33:33;;;;;;;1.13;0.63;;;;;;;;;;5094673;28;20024;-59
2021/08/21 12:36:08;;;;;;;0.63;0.50;;;;;;;;;;5094004;28;20363;-60
2021/08/21 12:38:34;;;;;;;0.65;0.40;;;;;;;;;;5101398;28;20070;-59
2021/08/21 12:41:10;;;;;;;0.88;0.60;;;;;;;;;;5111342;28;20059;-60
2021/08/21 12:43:38;;;;;;;1.80;0.60;;;;;;;;;;5076507;28;20386;-60
2021/08/21 12:46:14;;;;;;;0.73;0.60;;;;;;;;;;5094349;28;20016;-60
2021/08/21 12:48:40;;;;;;;0.60;0.52;;;;;;;;;;5094490;28;20023;-60
2021/08/21 12:51:05;;;;;;;2.33;0.50;;;;;;;;;;5094349;28;20016;-60
2021/08/21 12:53:30;;;;;;;1.37;0.50;;;;;;;;;;5094028;28;20012;-59
2021/08/21 12:56:11;;;;;;;0.50;0.50;;;;;;;;;;5093422;28;20019;-59
2021/08/21 12:58:36;;;;;;;0.38;0.32;;;;;;;;;;5094154;28;20246;-59
2021/08/21 13:01:07;;;;;;;0.50;0.50;;;;;;;;;;5094014;28;20020;-60
2021/08/21 13:03:32;;;;;;;0.60;0.50;;;;;;;;;;5094040;28;20023;-60
2021/08/21 13:05:58;;;;;;;0.73;0.67;;;;;;;;;;5094002;28;20024;-58
2021/08/21 13:08:32;;;;;;;1.15;0.43;;;;;;;;;;5093952;28;20069;-58
2021/08/21 13:10:57;;;;;;;1.33;0.60;;;;;;;;;;5093644;28;20107;-59
2021/08/21 13:13:23;;;;;;;0.60;0.40;;;;;;;;;;5093655;28;20058;-59
2021/08/21 13:15:49;;;;;;;0.83;0.60;;;;;;;;;;5093701;28;20053;-59
2021/08/21 13:18:14;;;;;;;0.50;0.50;;;;;;;;;;5094172;28;20081;-59
2021/08/21 13:20:39;;;;;;;0.60;0.60;;;;;;;;;;5093743;28;20510;-59
2021/08/21 13:23:05;;;;;;;0.60;0.50;;;;;;;;;;5093720;28;20022;-59
2021/08/21 13:25:30;;;;;;;0.60;0.40;;;;;;;;;;5093647;28;20016;-59
2021/08/21 13:27:55;;;;;;;2.00;0.47;;;;;;;;;;5093433;28;20132;-60
2021/08/21 13:30:20;;;;;;;1.87;0.60;;;;;;;;;;5093625;28;20021;-59
2021/08/21 13:32:46;;;;;;;1.87;0.50;;;;;;;;;;5093528;28;20786;-58
2021/08/21 13:35:12;;;;;;;0.60;0.60;;;;;;;;;;5093346;28;20078;-58
2021/08/21 13:37:37;;;;;;;1.95;0.40;;;;;;;;;;5093477;28;20084;-59
2021/08/21 13:40:03;;;;;;;1.17;0.50;;;;;;;;;;5092968;28;20089;-59
2021/08/21 13:42:28;;;;;;;1.00;0.50;;;;;;;;;;5107439;28;20262;-59
2021/08/21 13:44:53;;;;;;;0.67;0.40;;;;;;;;;;5113620;28;20467;-58
2021/08/21 13:47:22;;;;;;;0.77;0.40;;;;;;;;;;5082216;28;20020;-59
2021/08/21 13:49:47;;;;;;;1.13;0.60;;;;;;;;;;5093313;28;20382;-59
2021/08/21 13:52:12;;;;;;;0.93;0.70;;;;;;;;;;5093088;28;20020;-58
2021/08/21 13:54:37;;;;;;;0.83;0.57;;;;;;;;;;5092924;28;20138;-59
2021/08/21 13:57:04;;;;;;;1.30;0.53;;;;;;;;;;5082332;28;20025;-59
2021/08/21 13:59:29;;;;;;;1.08;0.50;;;;;;;;;;5073061;28;20371;-58
2021/08/21 14:01:54;;;;;;;1.27;0.50;;;;;;;;;;5074780;28;20016;-59
2021/08/21 14:04:19;;;;;;;1.02;0.40;;;;;;;;;;5093370;28;20095;-59
2021/08/21 14:06:45;;;;;;;1.30;0.50;;;;;;;;;;5092646;28;20058;-59
2021/08/21 14:09:11;;;;;;;1.33;0.40;;;;;;;;;;5097493;28;20016;-60
2021/08/21 14:11:37;;;;;;;1.02;0.40;;;;;;;;;;5092842;28;20016;-59
2021/08/21 14:14:03;;;;;;;0.40;0.30;;;;;;;;;;5093090;28;20016;-60
2021/08/21 14:16:28;;;;;;;0.30;0.30;;;;;;;;;;5092838;28;20085;-60
2021/08/21 14:18:53;;;;;;;0.40;0.40;;;;;;;;;;5101901;28;20032;-60
2021/08/21 14:21:18;;;;;;;0.30;0.30;;;;;;;;;;5092993;28;20024;-59
2021/08/21 14:23:44;;;;;;;1.10;0.40;;;;;;;;;;5092517;28;20110;-58
2021/08/21 14:26:09;;;;;;;0.50;0.50;;;;;;;;;;5092428;28;20309;-59
2021/08/21 14:28:35;;;;;;;1.58;0.40;;;;;;;;;;5092349;28;20056;-58
2021/08/21 14:31:01;;;;;;;1.05;0.40;;;;;;;;;;5092174;28;20355;-59
2021/08/21 14:33:26;;;;;;;2.05;0.50;;;;;;;;;;5092447;28;20284;-59
2021/08/21 14:35:52;;;;;;;1.43;0.60;;;;;;;;;;5092445;28;20016;-60
2021/08/21 14:38:17;;;;;;;0.63;0.40;;;;;;;;;;5092290;28;20062;-60